createdAt,value
2023-05-02T00:04:57.950Z,73.90
2023-05-02T00:10:02.934Z,74.10
2023-05-02T00:15:10.431Z,74.10
2023-05-02T00:20:14.223Z,73.90
2023-05-02T00:25:17.623Z,73.90
2023-05-02T00:30:22.461Z,74.50
2023-05-02T00:35:25.814Z,74.60
2023-05-02T00:40:29.159Z,74.80
2023-05-02T00:45:34.002Z,74.60
2023-05-02T00:50:40.481Z,74.80
2023-05-02T00:55:44.219Z,74.80
2023-05-02T01:01:13.322Z,75.00
2023-05-02T01:06:36.643Z,74.90
2023-05-02T01:11:53.402Z,75.00
2023-05-02T01:16:59.372Z,75.00
2023-05-02T01:22:07.955Z,75.00
2023-05-02T01:27:24.057Z,74.90
2023-05-02T01:32:31.535Z,74.90
2023-05-02T01:37:37.629Z,75.10
2023-05-02T01:42:42.568Z,75.20
2023-05-02T01:47:48.807Z,75.10
2023-05-02T01:52:54.990Z,75.50
2023-05-02T01:57:58.753Z,75.20
2023-05-02T02:03:08.064Z,75.50
2023-05-02T02:08:11.566Z,75.10
2023-05-02T02:13:26.910Z,75.60
2023-05-02T02:18:38.149Z,75.40
2023-05-02T02:23:43.774Z,75.70
2023-05-02T02:28:48.216Z,76.00
2023-05-02T02:33:53.277Z,75.90
2023-05-02T02:39:11.955Z,76.30
2023-05-02T02:44:29.716Z,76.10
2023-05-02T02:49:52.519Z,75.80
2023-05-02T02:55:04.064Z,76.30
2023-05-02T03:00:17.671Z,76.30
2023-05-02T03:05:23.970Z,76.20
2023-05-02T03:10:27.701Z,76.20
2023-05-02T03:16:30.896Z,75.80
2023-05-02T03:21:36.423Z,76.50
2023-05-02T03:26:47.651Z,76.70
2023-05-02T03:31:53.672Z,76.70
2023-05-02T03:36:59.606Z,76.70
2023-05-02T03:42:03.251Z,76.70
2023-05-02T03:47:07.456Z,76.60
2023-05-02T03:52:17.148Z,76.70
2023-05-02T03:57:22.298Z,76.70
2023-05-02T04:02:26.463Z,76.60
2023-05-02T04:07:32.323Z,76.60
2023-05-02T04:12:41.333Z,76.50
2023-05-02T04:17:45.078Z,76.60
2023-05-02T04:22:51.697Z,76.80
2023-05-02T04:27:55.243Z,77.00
2023-05-02T04:33:00.668Z,77.00
2023-05-02T04:38:09.976Z,76.90
2023-05-02T04:43:14.417Z,77.00
2023-05-02T04:48:25.309Z,76.80
2023-05-02T04:53:30.963Z,77.00
2023-05-02T04:58:35.133Z,77.00
2023-05-02T05:03:41.748Z,77.00
2023-05-02T05:08:47.947Z,77.10
2023-05-02T05:13:53.102Z,77.00
2023-05-02T05:18:57.244Z,76.90
2023-05-02T05:24:02.317Z,76.90
2023-05-02T05:29:06.185Z,76.80
2023-05-02T05:34:15.676Z,76.80
2023-05-02T05:39:23.977Z,76.60
2023-05-02T05:44:29.647Z,76.70
2023-05-02T05:49:38.419Z,76.50
2023-05-02T05:54:45.364Z,76.50
2023-05-02T05:59:49.047Z,76.60
2023-05-02T06:04:53.593Z,76.50
2023-05-02T06:10:01.739Z,76.00
2023-05-02T06:15:09.360Z,76.00
2023-05-02T06:20:13.877Z,76.50
2023-05-02T06:25:18.890Z,76.30
2023-05-02T06:30:22.293Z,76.20
2023-05-02T06:35:25.764Z,76.50
2023-05-02T06:40:30.461Z,76.40
2023-05-02T06:45:33.819Z,76.50
2023-05-02T06:50:37.665Z,76.30
2023-05-02T06:55:42.533Z,76.50
2023-05-02T07:00:46.175Z,76.10
2023-05-02T07:05:49.776Z,75.70
2023-05-02T07:10:54.576Z,75.80
2023-05-02T07:15:58.372Z,75.20
2023-05-02T07:21:02.178Z,74.00
2023-05-02T07:26:07.215Z,73.40
2023-05-02T07:31:10.659Z,72.80
2023-05-02T07:36:14.134Z,72.50
2023-05-02T07:41:18.912Z,72.90
2023-05-02T07:46:22.500Z,72.20
2023-05-02T07:51:26.283Z,72.10
2023-05-02T07:56:31.814Z,71.80
2023-05-02T08:01:35.171Z,71.90
2023-05-02T08:06:38.715Z,71.50
2023-05-02T08:11:43.527Z,72.10
2023-05-02T08:16:46.934Z,72.70
2023-05-02T08:21:50.537Z,72.80
2023-05-02T08:26:55.255Z,72.80
2023-05-02T08:31:58.756Z,72.80
2023-05-02T08:37:02.227Z,73.60
2023-05-02T08:42:09.913Z,73.10
2023-05-02T08:47:15.541Z,74.10
2023-05-02T08:52:21.393Z,74.80
2023-05-02T08:57:27.094Z,75.40
2023-05-02T09:02:53.541Z,75.90
2023-05-02T09:07:57.076Z,76.70
2023-05-02T09:13:33.018Z,77.70
2023-05-02T09:18:40.500Z,79.20
2023-05-02T09:23:47.394Z,80.50
2023-05-02T09:28:55.809Z,82.00
2023-05-02T09:34:09.991Z,82.30
2023-05-02T09:39:15.852Z,82.20
2023-05-02T09:44:23.023Z,81.70
2023-05-02T09:49:44.865Z,80.80
2023-05-02T09:54:50.655Z,80.00
2023-05-02T10:00:00.079Z,80.10
2023-05-02T10:05:05.674Z,79.60
2023-05-02T10:10:12.787Z,77.90
2023-05-02T10:15:19.766Z,78.40
2023-05-02T10:20:31.249Z,77.70
2023-05-02T10:25:35.591Z,77.40
2023-05-02T10:30:41.993Z,79.00
2023-05-02T10:35:47.547Z,79.70
2023-05-02T10:40:58.934Z,79.40
2023-05-02T10:46:04.122Z,78.10
2023-05-02T10:51:14.089Z,78.40
2023-05-02T10:56:22.157Z,78.70
2023-05-02T11:01:40.040Z,77.30
2023-05-02T11:07:21.075Z,77.30
2023-05-02T11:12:47.439Z,76.30
2023-05-02T11:18:02.804Z,75.20
2023-05-02T11:23:26.867Z,75.90
2023-05-02T11:28:47.777Z,75.40
2023-05-02T11:33:59.541Z,74.60
2023-05-02T11:39:05.689Z,75.60
2023-05-02T11:44:09.238Z,74.60
2023-05-02T11:49:15.147Z,73.20
2023-05-02T11:54:21.398Z,72.90
2023-05-02T11:59:24.764Z,72.10
2023-05-02T12:04:29.714Z,72.50
2023-05-02T12:09:33.088Z,71.80
2023-05-02T12:14:38.378Z,72.20
2023-05-02T12:19:43.259Z,72.20
2023-05-02T12:24:46.716Z,72.00
2023-05-02T12:29:50.797Z,71.10
2023-05-02T12:34:55.687Z,71.10
2023-05-02T12:40:02.935Z,72.80
2023-05-02T12:45:19.522Z,73.20
2023-05-02T12:50:39.336Z,73.60
2023-05-02T12:55:44.588Z,73.90
2023-05-02T13:00:49.648Z,73.80
2023-05-02T13:05:58.457Z,72.00
2023-05-02T13:11:03.907Z,73.50
2023-05-02T13:16:10.530Z,72.60
2023-05-02T13:21:17.015Z,71.90
2023-05-02T13:26:22.066Z,71.50
2023-05-02T13:31:26.691Z,71.20
2023-05-02T13:36:33.262Z,71.00
2023-05-02T13:41:37.283Z,70.90
2023-05-02T13:46:40.874Z,70.70
2023-05-02T13:51:45.670Z,70.70
2023-05-02T13:56:49.018Z,70.90
2023-05-02T14:01:52.445Z,71.20
2023-05-02T14:06:57.196Z,70.70
2023-05-02T14:12:01.994Z,71.00
2023-05-02T14:17:05.555Z,71.20
2023-05-02T14:22:10.275Z,70.90
2023-05-02T14:27:18.116Z,71.20
2023-05-02T14:32:21.638Z,71.00
2023-05-02T14:37:26.696Z,70.60
2023-05-02T14:42:30.062Z,69.60
2023-05-02T14:47:33.776Z,70.30
2023-05-02T14:52:38.575Z,70.00
2023-05-02T14:57:42.122Z,66.70
2023-05-02T15:02:45.556Z,66.30
2023-05-02T15:07:50.398Z,68.60
2023-05-02T15:12:53.763Z,67.20
2023-05-02T15:17:57.184Z,67.80
2023-05-02T15:23:03.561Z,67.10
2023-05-02T15:28:08.083Z,66.80
2023-05-02T15:33:11.576Z,65.80
2023-05-02T15:38:16.470Z,65.10
2023-05-02T15:43:19.831Z,65.80
2023-05-02T15:48:24.830Z,65.70
2023-05-02T15:53:30.331Z,66.60
2023-05-02T15:58:33.687Z,66.80
2023-05-02T16:03:37.160Z,66.90
2023-05-02T16:08:42.088Z,66.20
2023-05-02T16:13:45.572Z,67.10
2023-05-02T16:18:49.449Z,67.70
2023-05-02T16:23:55.019Z,67.70
2023-05-02T16:28:58.380Z,68.50
2023-05-02T16:34:02.962Z,69.00
2023-05-02T16:39:07.694Z,69.30
2023-05-02T16:44:11.324Z,69.20
2023-05-02T16:49:14.689Z,68.70
2023-05-02T16:54:19.465Z,67.70
2023-05-02T16:59:22.822Z,68.40
2023-05-02T17:04:26.329Z,68.60
2023-05-02T17:09:31.105Z,68.20
2023-05-02T17:14:34.985Z,67.80
2023-05-02T17:19:39.775Z,68.00
2023-05-02T17:24:48.205Z,68.10
2023-05-02T17:29:51.557Z,68.50
2023-05-02T17:34:56.821Z,68.20
2023-05-02T17:40:02.638Z,68.30
2023-05-02T17:45:08.611Z,67.90
2023-05-02T17:50:14.194Z,66.50
2023-05-02T17:55:19.661Z,69.00
2023-05-02T18:00:23.891Z,68.20
2023-05-02T18:05:28.044Z,68.30
2023-05-02T18:10:38.419Z,68.10
2023-05-02T18:15:41.969Z,67.60
2023-05-02T18:20:45.345Z,67.50
2023-05-02T18:25:50.085Z,67.50
2023-05-02T18:30:53.461Z,67.70
2023-05-02T18:35:56.879Z,67.80
2023-05-02T18:41:01.631Z,67.80
2023-05-02T18:46:05.058Z,68.10
2023-05-02T18:51:08.511Z,68.20
2023-05-02T18:56:16.610Z,68.40
2023-05-02T19:01:21.934Z,72.20
2023-05-02T19:06:26.166Z,72.40
2023-05-02T19:11:31.103Z,71.50
2023-05-02T19:16:35.009Z,72.30
2023-05-02T19:21:39.004Z,72.60
2023-05-02T19:26:44.122Z,72.80
2023-05-02T19:31:47.577Z,72.40
2023-05-02T19:36:51.110Z,72.20
2023-05-02T19:41:55.882Z,72.10
2023-05-02T19:46:59.394Z,72.00
2023-05-02T19:52:03.035Z,71.80
2023-05-02T19:57:07.781Z,71.90
2023-05-02T20:02:12.256Z,71.80
2023-05-02T20:07:15.715Z,71.70
2023-05-02T20:12:20.435Z,71.90
2023-05-02T20:17:23.881Z,71.80
2023-05-02T20:22:27.420Z,71.90
2023-05-02T20:27:32.154Z,71.80
2023-05-02T20:32:35.762Z,71.80
2023-05-02T20:37:39.208Z,71.70
2023-05-02T20:42:43.940Z,71.70
2023-05-02T20:47:48.061Z,71.70
2023-05-02T20:52:51.679Z,71.40
2023-05-02T20:57:56.536Z,71.60
2023-05-02T21:03:00.038Z,71.70
2023-05-02T21:08:03.505Z,71.70
2023-05-02T21:13:08.252Z,71.70
2023-05-02T21:18:11.843Z,71.70
2023-05-02T21:23:15.304Z,71.80
2023-05-02T21:28:20.104Z,71.70
2023-05-02T21:33:24.040Z,71.90
2023-05-02T21:38:28.213Z,71.80
2023-05-02T21:43:38.682Z,71.60
2023-05-02T21:48:42.199Z,71.60
2023-05-02T21:53:45.568Z,71.80
2023-05-02T21:58:51.338Z,71.80
2023-05-02T22:03:55.454Z,71.70
2023-05-02T22:08:58.849Z,71.80
2023-05-02T22:14:03.611Z,71.70
2023-05-02T22:19:07.459Z,71.40
2023-05-02T22:24:10.866Z,71.70
2023-05-02T22:29:15.741Z,71.60
2023-05-02T22:34:20.009Z,71.70
2023-05-02T22:39:23.414Z,71.40
2023-05-02T22:44:28.158Z,71.50
2023-05-02T22:49:33.046Z,71.40
2023-05-02T22:54:36.415Z,71.40
2023-05-02T22:59:41.169Z,71.70
2023-05-02T23:04:44.684Z,71.50
2023-05-02T23:09:48.133Z,71.90
2023-05-02T23:14:53.137Z,71.90
2023-05-02T23:19:56.552Z,72.40
2023-05-02T23:24:59.946Z,72.80
2023-05-02T23:30:06.615Z,73.00
2023-05-02T23:35:12.315Z,73.10
2023-05-02T23:40:15.745Z,73.20
2023-05-02T23:45:21.206Z,73.40
2023-05-02T23:50:24.585Z,73.50
2023-05-02T23:55:28.187Z,73.70
